createdAt,value
2018-12-27T00:01:51.127Z,37.17
2018-12-27T00:04:20.476Z,42.07
2018-12-27T00:06:49.836Z,42.40
2018-12-27T00:09:19.262Z,38.93
2018-12-27T00:11:48.626Z,39.90
2018-12-27T00:14:18.023Z,47.70
2018-12-27T00:16:47.403Z,69.20
2018-12-27T00:19:16.759Z,40.97
2018-12-27T00:21:46.124Z,40.67
2018-12-27T00:24:15.635Z,38.83
2018-12-27T00:26:45.019Z,65.20
2018-12-27T00:29:14.366Z,42.37
2018-12-27T00:31:43.988Z,57.03
2018-12-27T00:34:13.586Z,43.63
2018-12-27T00:36:43.220Z,45.63
2018-12-27T00:39:12.854Z,46.93
2018-12-27T00:41:42.488Z,48.03
2018-12-27T00:44:12.083Z,44.50
2018-12-27T00:46:41.661Z,40.77
2018-12-27T00:49:11.264Z,42.90
2018-12-27T00:51:40.876Z,43.40
2018-12-27T00:54:10.470Z,48.27
2018-12-27T00:56:40.067Z,44.47
2018-12-27T00:59:09.661Z,41.83
2018-12-27T01:01:39.258Z,48.83
2018-12-27T01:04:08.857Z,45.97
2018-12-27T01:06:38.465Z,49.50
2018-12-27T01:09:08.087Z,49.50
2018-12-27T01:11:37.690Z,48.90
2018-12-27T01:14:07.310Z,43.77
2018-12-27T01:16:37.027Z,74.03
2018-12-27T01:19:06.618Z,49.90
2018-12-27T01:21:36.228Z,45.57
2018-12-27T01:24:05.825Z,42.33
2018-12-27T01:26:35.415Z,41.10
2018-12-27T01:29:05.006Z,41.33
2018-12-27T01:31:34.598Z,49.93
2018-12-27T01:34:04.225Z,44.73
2018-12-27T01:36:33.838Z,36.80
2018-12-27T01:39:05.163Z,58.93
2018-12-27T01:41:34.744Z,41.63
2018-12-27T01:44:04.353Z,55.27
2018-12-27T01:46:33.943Z,52.37
2018-12-27T01:49:03.570Z,61.23
2018-12-27T01:51:33.160Z,48.13
2018-12-27T01:54:02.763Z,40.60
2018-12-27T01:56:32.375Z,42.43
2018-12-27T01:59:02.006Z,39.80
2018-12-27T02:01:31.610Z,43.00
2018-12-27T02:04:01.220Z,51.97
2018-12-27T02:06:30.806Z,38.70
2018-12-27T02:09:00.442Z,37.53
2018-12-27T02:11:30.048Z,65.60
2018-12-27T02:13:59.649Z,44.83
2018-12-27T02:16:29.269Z,91.60
2018-12-27T02:18:58.894Z,42.73
2018-12-27T02:21:28.523Z,40.43
2018-12-27T02:23:58.128Z,56.20
2018-12-27T02:26:27.729Z,38.73
2018-12-27T02:28:57.357Z,39.13
2018-12-27T02:31:26.954Z,46.33
2018-12-27T02:33:56.592Z,40.23
2018-12-27T02:36:26.178Z,45.33
2018-12-27T02:38:55.784Z,49.17
2018-12-27T02:41:25.395Z,51.27
2018-12-27T02:43:55.002Z,56.50
2018-12-27T02:46:24.610Z,66.50
2018-12-27T02:48:54.218Z,41.13
2018-12-27T02:51:23.849Z,45.10
2018-12-27T02:53:53.431Z,42.63
2018-12-27T02:56:23.047Z,44.13
2018-12-27T02:58:52.648Z,45.43
2018-12-27T03:01:22.267Z,41.40
2018-12-27T03:03:51.934Z,41.27
2018-12-27T03:06:21.583Z,38.63
2018-12-27T03:08:51.178Z,42.90
2018-12-27T03:11:20.773Z,42.97
2018-12-27T03:13:50.382Z,45.70
2018-12-27T03:16:19.987Z,46.40
2018-12-27T03:18:49.613Z,54.63
2018-12-27T03:21:19.219Z,42.43
2018-12-27T03:23:48.833Z,97.23
2018-12-27T03:26:18.435Z,66.80
2018-12-27T03:28:48.443Z,48.13
2018-12-27T03:31:18.055Z,54.93
2018-12-27T03:33:52.642Z,43.90
2018-12-27T03:36:18.950Z,45.13
2018-12-27T03:38:48.563Z,47.73
2018-12-27T03:41:18.160Z,43.90
2018-12-27T03:43:47.792Z,44.77
2018-12-27T03:46:17.388Z,44.67
2018-12-27T03:48:47.012Z,59.60
2018-12-27T03:51:16.702Z,48.70
2018-12-27T03:53:46.321Z,52.53
2018-12-27T03:56:15.919Z,49.83
2018-12-27T03:58:45.542Z,47.07
2018-12-27T04:01:15.165Z,46.43
2018-12-27T04:03:44.820Z,44.73
2018-12-27T04:06:14.506Z,54.60
2018-12-27T04:08:44.110Z,55.33
2018-12-27T04:11:13.719Z,42.70
2018-12-27T04:13:43.357Z,39.93
2018-12-27T04:16:12.733Z,41.37
2018-12-27T04:18:42.083Z,43.47
2018-12-27T04:21:11.444Z,45.37
2018-12-27T04:23:41.157Z,44.77
2018-12-27T04:26:10.592Z,41.90
2018-12-27T04:28:39.954Z,39.03
2018-12-27T04:31:09.369Z,42.50
2018-12-27T04:33:39.271Z,39.50
2018-12-27T04:36:09.428Z,42.80
2018-12-27T04:38:38.802Z,41.60
2018-12-27T04:41:08.170Z,44.47
2018-12-27T04:43:37.911Z,43.87
2018-12-27T04:46:07.263Z,46.27
2018-12-27T04:48:36.626Z,41.93
2018-12-27T04:51:05.984Z,43.00
2018-12-27T04:53:35.340Z,45.43
2018-12-27T04:56:04.691Z,53.43
2018-12-27T04:58:34.042Z,48.07
2018-12-27T05:01:03.424Z,45.80
2018-12-27T05:03:32.779Z,49.83
2018-12-27T05:06:02.150Z,43.00
2018-12-27T05:08:31.565Z,46.97
2018-12-27T05:11:00.883Z,45.40
2018-12-27T05:13:30.234Z,45.63
2018-12-27T05:15:59.621Z,48.43
2018-12-27T05:18:28.978Z,43.23
2018-12-27T05:20:58.373Z,43.80
2018-12-27T05:23:27.727Z,42.90
2018-12-27T05:25:57.081Z,45.40
2018-12-27T05:28:26.479Z,37.97
2018-12-27T05:30:55.881Z,48.70
2018-12-27T05:33:25.240Z,40.83
2018-12-27T05:35:54.600Z,43.67
2018-12-27T05:38:23.977Z,51.83
2018-12-27T05:40:53.373Z,41.50
2018-12-27T05:43:22.756Z,47.33
2018-12-27T05:45:52.169Z,40.07
2018-12-27T05:48:21.554Z,55.37
2018-12-27T05:50:50.895Z,46.20
2018-12-27T05:53:20.253Z,40.03
2018-12-27T05:55:49.604Z,53.67
2018-12-27T05:58:18.968Z,237.03
2018-12-27T06:00:48.354Z,147.37
2018-12-27T06:03:17.716Z,56.83
2018-12-27T06:05:47.095Z,60.53
2018-12-27T06:08:16.449Z,184.63
2018-12-27T06:10:45.802Z,55.70
2018-12-27T06:13:15.171Z,87.40
2018-12-27T06:15:44.515Z,242.37
2018-12-27T06:18:13.887Z,77.57
2018-12-27T06:20:43.281Z,49.93
2018-12-27T06:23:12.621Z,53.83
2018-12-27T06:25:41.981Z,44.77
2018-12-27T06:28:11.343Z,50.83
2018-12-27T06:30:40.690Z,104.83
2018-12-27T06:33:10.067Z,82.10
2018-12-27T06:35:39.430Z,44.63
2018-12-27T06:38:08.802Z,47.30
2018-12-27T06:40:38.158Z,112.40
2018-12-27T06:43:07.536Z,120.10
2018-12-27T06:45:36.904Z,116.37
2018-12-27T06:48:06.239Z,85.87
2018-12-27T06:50:35.587Z,47.83
2018-12-27T06:53:04.937Z,53.37
2018-12-27T06:55:34.369Z,53.97
2018-12-27T06:58:03.745Z,74.67
2018-12-27T07:00:33.107Z,54.73
2018-12-27T07:03:02.472Z,41.70
2018-12-27T07:05:31.838Z,48.67
2018-12-27T07:08:01.195Z,48.07
2018-12-27T07:10:30.568Z,40.93
2018-12-27T07:12:59.931Z,42.07
2018-12-27T07:15:29.298Z,40.80
2018-12-27T07:17:58.663Z,34.27
2018-12-27T07:20:28.039Z,36.13
2018-12-27T07:22:57.394Z,34.80
2018-12-27T07:25:26.773Z,32.27
2018-12-27T07:27:56.128Z,36.87
2018-12-27T07:30:25.482Z,34.07
2018-12-27T07:32:54.836Z,45.60
2018-12-27T07:35:24.206Z,40.37
2018-12-27T07:37:53.571Z,35.17
2018-12-27T07:40:22.962Z,43.00
2018-12-27T07:42:52.347Z,35.30
2018-12-27T07:45:21.717Z,39.00
2018-12-27T07:47:51.082Z,37.40
2018-12-27T07:50:20.458Z,42.00
2018-12-27T07:52:49.844Z,41.00
2018-12-27T07:55:19.273Z,37.30
2018-12-27T07:57:48.631Z,36.50
2018-12-27T08:00:18.331Z,37.77
2018-12-27T08:02:47.688Z,36.43
2018-12-27T08:05:17.061Z,40.10
2018-12-27T08:07:46.413Z,37.37
2018-12-27T08:10:15.795Z,35.83
2018-12-27T08:12:45.145Z,40.40
2018-12-27T08:15:14.500Z,38.67
2018-12-27T08:17:43.838Z,39.60
2018-12-27T08:20:13.317Z,40.33
2018-12-27T08:22:42.656Z,41.30
2018-12-27T08:25:12.180Z,39.10
2018-12-27T08:27:41.529Z,35.97
2018-12-27T08:30:10.974Z,36.13
2018-12-27T08:32:40.346Z,35.43
2018-12-27T08:35:11.597Z,35.33
2018-12-27T08:37:40.993Z,35.50
2018-12-27T08:40:10.375Z,34.83
2018-12-27T08:42:39.735Z,38.13
2018-12-27T08:45:09.246Z,40.40
2018-12-27T08:47:38.686Z,39.40
2018-12-27T08:50:08.147Z,36.80
2018-12-27T08:52:37.562Z,38.43
2018-12-27T08:55:07.190Z,34.27
2018-12-27T08:57:36.652Z,36.57
2018-12-27T09:00:06.406Z,36.27
2018-12-27T09:02:35.776Z,37.53
2018-12-27T09:05:05.526Z,37.93
2018-12-27T09:07:34.931Z,40.03
2018-12-27T09:10:04.586Z,36.17
2018-12-27T09:12:33.965Z,37.87
2018-12-27T09:15:03.397Z,35.37
2018-12-27T09:17:32.846Z,39.10
2018-12-27T09:20:02.205Z,37.10
2018-12-27T09:22:31.583Z,35.63
2018-12-27T09:25:00.935Z,39.83
2018-12-27T09:27:30.321Z,37.33
2018-12-27T09:29:59.683Z,35.40
2018-12-27T09:32:29.063Z,36.47
2018-12-27T09:34:58.434Z,35.97
2018-12-27T09:37:27.793Z,35.50
2018-12-27T09:39:57.183Z,37.77
2018-12-27T09:42:27.005Z,36.87
2018-12-27T09:44:58.051Z,33.83
2018-12-27T09:47:28.175Z,37.67
2018-12-27T09:49:57.494Z,36.53
2018-12-27T09:52:26.952Z,35.27
2018-12-27T09:54:56.349Z,34.60
2018-12-27T09:57:25.722Z,37.80
2018-12-27T09:59:55.117Z,43.13
2018-12-27T10:02:24.487Z,38.77
2018-12-27T10:04:53.899Z,37.77
2018-12-27T10:07:23.280Z,42.20
2018-12-27T10:09:52.642Z,43.23
2018-12-27T10:12:22.015Z,44.83
2018-12-27T10:14:51.403Z,41.90
2018-12-27T10:17:20.831Z,41.43
2018-12-27T10:19:50.297Z,39.27
2018-12-27T10:22:19.748Z,35.60
2018-12-27T10:24:49.119Z,36.53
2018-12-27T10:27:18.610Z,36.33
2018-12-27T10:29:48.080Z,35.93
2018-12-27T10:32:17.466Z,34.83
2018-12-27T10:34:46.847Z,37.57
2018-12-27T10:37:16.280Z,36.57
2018-12-27T10:39:45.695Z,36.47
2018-12-27T10:42:15.079Z,37.43
2018-12-27T10:44:44.451Z,34.43
2018-12-27T10:47:13.999Z,36.07
2018-12-27T10:49:43.463Z,37.80
2018-12-27T10:52:12.846Z,32.97
2018-12-27T10:54:42.310Z,33.43
2018-12-27T10:57:11.620Z,39.13
2018-12-27T10:59:40.989Z,36.97
2018-12-27T11:02:10.358Z,39.97
2018-12-27T11:04:39.747Z,38.13
2018-12-27T11:07:09.344Z,35.50
2018-12-27T11:09:38.794Z,37.10
2018-12-27T11:12:08.190Z,33.87
2018-12-27T11:14:37.626Z,38.00
2018-12-27T11:17:07.083Z,34.83
2018-12-27T11:19:36.464Z,34.40
2018-12-27T11:22:05.904Z,37.47
2018-12-27T11:24:35.292Z,36.67
2018-12-27T11:27:04.737Z,35.40
2018-12-27T11:29:34.392Z,34.77
2018-12-27T11:32:03.767Z,36.50
2018-12-27T11:34:33.258Z,36.77
2018-12-27T11:37:02.688Z,33.83
2018-12-27T11:39:32.046Z,35.90
2018-12-27T11:42:01.532Z,152.60
2018-12-27T11:44:30.883Z,43.50
2018-12-27T11:47:00.268Z,34.20
2018-12-27T11:49:29.639Z,33.27
2018-12-27T11:51:58.982Z,33.80
2018-12-27T11:54:28.448Z,34.37
2018-12-27T11:56:57.797Z,34.07
2018-12-27T11:59:27.183Z,35.43
2018-12-27T12:01:56.633Z,32.70
2018-12-27T12:04:26.005Z,32.23
2018-12-27T12:06:55.395Z,29.83
2018-12-27T12:09:24.987Z,32.83
2018-12-27T12:11:54.465Z,32.73
2018-12-27T12:14:23.921Z,31.13
2018-12-27T12:16:53.384Z,36.93
2018-12-27T12:19:22.799Z,33.40
2018-12-27T12:21:52.229Z,32.87
2018-12-27T12:24:21.902Z,31.47
2018-12-27T12:26:51.289Z,28.97
2018-12-27T12:29:20.677Z,31.80
2018-12-27T12:31:50.027Z,33.43
2018-12-27T12:34:19.452Z,31.67
2018-12-27T12:36:48.931Z,30.90
2018-12-27T12:39:18.324Z,33.03
2018-12-27T12:41:47.717Z,28.50
2018-12-27T12:44:17.096Z,33.80
2018-12-27T12:46:46.496Z,31.50
2018-12-27T12:49:15.857Z,29.47
2018-12-27T12:51:45.218Z,32.13
2018-12-27T12:54:14.648Z,31.23
2018-12-27T12:56:43.943Z,32.73
2018-12-27T12:59:13.364Z,32.07
2018-12-27T13:01:42.854Z,33.80
2018-12-27T13:04:12.363Z,32.30
2018-12-27T13:06:41.764Z,35.13
2018-12-27T13:09:11.136Z,35.00
2018-12-27T13:11:40.516Z,33.43
2018-12-27T13:14:09.954Z,33.37
2018-12-27T13:16:39.342Z,35.10
2018-12-27T13:19:08.695Z,36.73
2018-12-27T13:21:38.172Z,33.13
2018-12-27T13:24:07.667Z,35.80
2018-12-27T13:26:37.101Z,36.07
2018-12-27T13:29:06.473Z,39.53
2018-12-27T13:31:35.888Z,37.03
2018-12-27T13:34:05.258Z,36.00
2018-12-27T13:36:34.640Z,36.40
2018-12-27T13:39:05.925Z,37.23
2018-12-27T13:41:35.292Z,40.30
2018-12-27T13:44:04.782Z,37.20
2018-12-27T13:46:34.166Z,37.47
2018-12-27T13:49:03.548Z,37.73
2018-12-27T13:51:33.049Z,36.77
2018-12-27T13:54:02.429Z,36.40
2018-12-27T13:56:31.780Z,36.33
2018-12-27T13:59:01.226Z,37.03
2018-12-27T14:01:30.758Z,36.40
2018-12-27T14:04:00.149Z,36.67
2018-12-27T14:06:32.750Z,37.50
2018-12-27T14:09:00.600Z,34.87
2018-12-27T14:11:30.035Z,38.40
2018-12-27T14:13:59.397Z,38.07
2018-12-27T14:16:28.792Z,34.23
2018-12-27T14:18:58.231Z,36.53
2018-12-27T14:21:27.699Z,44.00
2018-12-27T14:23:57.089Z,36.20
2018-12-27T14:26:26.545Z,43.17
2018-12-27T14:28:55.955Z,37.97
2018-12-27T14:31:25.320Z,37.50
2018-12-27T14:33:54.731Z,34.83
2018-12-27T14:36:25.929Z,38.20
2018-12-27T14:38:55.433Z,38.00
2018-12-27T14:41:24.815Z,37.77
2018-12-27T14:43:54.198Z,38.70
2018-12-27T14:46:23.612Z,37.30
2018-12-27T14:48:53.098Z,40.00
2018-12-27T14:51:22.509Z,40.37
2018-12-27T14:53:51.967Z,40.23
2018-12-27T14:56:21.337Z,40.97
2018-12-27T14:58:50.740Z,36.87
2018-12-27T15:01:20.128Z,37.67
2018-12-27T15:03:49.538Z,38.03
2018-12-27T15:06:18.941Z,40.37
2018-12-27T15:08:48.348Z,36.90
2018-12-27T15:11:17.722Z,34.33
2018-12-27T15:13:47.202Z,35.80
2018-12-27T15:16:17.049Z,34.80
2018-12-27T15:18:46.633Z,34.03
2018-12-27T15:21:16.076Z,37.70
2018-12-27T15:23:45.464Z,36.03
2018-12-27T15:26:14.983Z,39.03
2018-12-27T15:28:44.459Z,36.57
2018-12-27T15:31:13.938Z,37.40
2018-12-27T15:33:43.316Z,33.90
2018-12-27T15:36:12.699Z,37.57
2018-12-27T15:38:42.086Z,35.37
2018-12-27T15:41:11.468Z,33.33
2018-12-27T15:43:40.924Z,33.20
2018-12-27T15:46:10.322Z,35.40
2018-12-27T15:48:39.702Z,35.97
2018-12-27T15:51:09.086Z,38.30
2018-12-27T15:53:38.739Z,39.10
2018-12-27T15:56:08.113Z,38.13
2018-12-27T15:58:37.501Z,39.30
2018-12-27T16:01:07.090Z,39.73
2018-12-27T16:03:37.528Z,41.53
2018-12-27T16:06:06.996Z,40.27
2018-12-27T16:08:36.357Z,38.60
2018-12-27T16:11:05.829Z,37.20
2018-12-27T16:13:35.268Z,38.37
2018-12-27T16:16:04.662Z,35.40
2018-12-27T16:18:34.038Z,35.70
2018-12-27T16:21:03.533Z,37.53
2018-12-27T16:23:32.934Z,37.80
2018-12-27T16:26:02.324Z,36.27
2018-12-27T16:28:31.766Z,35.83
2018-12-27T16:31:01.278Z,30.70
2018-12-27T16:33:30.635Z,33.00
2018-12-27T16:36:00.013Z,33.13
2018-12-27T16:38:29.428Z,31.93
2018-12-27T16:40:58.786Z,35.83
2018-12-27T16:43:28.272Z,38.13
2018-12-27T16:45:57.637Z,38.40
2018-12-27T16:48:27.034Z,38.93
2018-12-27T16:50:56.432Z,37.83
2018-12-27T16:53:25.811Z,41.30
2018-12-27T16:55:55.154Z,39.50
2018-12-27T16:58:24.519Z,35.13
2018-12-27T17:00:53.956Z,43.27
2018-12-27T17:03:23.332Z,41.63
2018-12-27T17:05:52.734Z,44.83
2018-12-27T17:08:22.123Z,44.23
2018-12-27T17:10:51.514Z,47.20
2018-12-27T17:13:20.864Z,52.47
2018-12-27T17:15:50.241Z,51.10
2018-12-27T17:18:19.668Z,49.87
2018-12-27T17:20:49.079Z,46.10
2018-12-27T17:23:18.510Z,51.87
2018-12-27T17:25:47.909Z,50.90
2018-12-27T17:28:17.373Z,46.83
2018-12-27T17:30:46.764Z,40.00
2018-12-27T17:33:16.210Z,40.83
2018-12-27T17:35:45.597Z,44.57
2018-12-27T17:38:15.018Z,45.03
2018-12-27T17:40:44.407Z,46.03
2018-12-27T17:43:13.805Z,49.53
2018-12-27T17:45:43.261Z,45.37
2018-12-27T17:48:12.620Z,44.57
2018-12-27T17:50:42.136Z,45.87
2018-12-27T17:53:11.523Z,52.27
2018-12-27T17:55:41.024Z,57.77
2018-12-27T17:58:10.419Z,56.03
2018-12-27T18:00:39.798Z,52.57
2018-12-27T18:03:09.171Z,52.53
2018-12-27T18:05:38.528Z,45.03
2018-12-27T18:08:07.981Z,44.47
2018-12-27T18:10:40.555Z,42.37
2018-12-27T18:13:09.979Z,40.53
2018-12-27T18:15:39.343Z,40.23
2018-12-27T18:18:08.766Z,45.60
2018-12-27T18:20:38.248Z,40.00
2018-12-27T18:23:07.618Z,40.90
2018-12-27T18:25:37.059Z,50.73
2018-12-27T18:28:06.447Z,40.77
2018-12-27T18:30:35.799Z,46.97
2018-12-27T18:33:05.438Z,93.37
2018-12-27T18:35:34.910Z,236.67
2018-12-27T18:38:04.311Z,165.67
2018-12-27T18:40:33.680Z,270.40
2018-12-27T18:43:03.084Z,148.80
2018-12-27T18:45:32.446Z,133.43
2018-12-27T18:48:01.846Z,98.20
2018-12-27T18:50:31.261Z,90.33
2018-12-27T18:53:00.644Z,80.47
2018-12-27T18:55:30.330Z,140.33
2018-12-27T18:57:59.677Z,99.53
2018-12-27T19:00:29.175Z,108.93
2018-12-27T19:02:58.546Z,140.37
2018-12-27T19:05:27.920Z,98.17
2018-12-27T19:07:57.317Z,75.93
2018-12-27T19:10:26.724Z,75.97
2018-12-27T19:13:12.918Z,98.90
2018-12-27T19:15:51.365Z,72.23
2018-12-27T19:18:24.402Z,114.83
2018-12-27T19:21:00.343Z,77.30
2018-12-27T19:23:30.751Z,148.87
2018-12-27T19:26:00.126Z,146.67
2018-12-27T19:28:29.568Z,242.40
2018-12-27T19:30:58.948Z,253.33
2018-12-27T19:33:28.309Z,156.27
2018-12-27T19:35:57.727Z,277.17
2018-12-27T19:38:27.115Z,61.20
2018-12-27T19:40:56.497Z,59.33
2018-12-27T19:43:25.885Z,55.87
2018-12-27T19:45:55.440Z,64.50
2018-12-27T19:48:24.812Z,87.37
2018-12-27T19:50:54.388Z,60.23
2018-12-27T19:53:23.782Z,40.10
2018-12-27T19:55:53.174Z,42.33
2018-12-27T19:58:22.698Z,76.73
2018-12-27T20:00:52.077Z,57.40
2018-12-27T20:03:21.431Z,95.60
2018-12-27T20:05:50.860Z,67.60
2018-12-27T20:08:20.284Z,59.27
2018-12-27T20:10:49.765Z,42.90
2018-12-27T20:13:19.157Z,52.40
2018-12-27T20:15:48.551Z,42.40
2018-12-27T20:18:17.925Z,57.13
2018-12-27T20:20:47.369Z,66.30
2018-12-27T20:23:16.780Z,133.07
2018-12-27T20:25:46.137Z,42.73
2018-12-27T20:28:15.517Z,35.70
2018-12-27T20:30:44.976Z,48.17
2018-12-27T20:33:14.355Z,34.40
2018-12-27T20:35:43.749Z,52.33
2018-12-27T20:38:13.148Z,74.43
2018-12-27T20:40:42.590Z,47.57
2018-12-27T20:43:11.983Z,62.30
2018-12-27T20:45:41.372Z,32.37
2018-12-27T20:48:10.762Z,50.13
2018-12-27T20:50:40.144Z,72.73
2018-12-27T20:53:09.597Z,36.73
2018-12-27T20:55:38.968Z,35.83
2018-12-27T20:58:08.380Z,40.70
2018-12-27T21:00:37.751Z,37.57
2018-12-27T21:03:07.241Z,33.80
2018-12-27T21:05:36.716Z,39.07
2018-12-27T21:08:06.182Z,55.67
2018-12-27T21:10:35.566Z,52.40
2018-12-27T21:13:05.024Z,43.90
2018-12-27T21:15:34.400Z,74.33
2018-12-27T21:18:03.763Z,58.23
2018-12-27T21:20:33.132Z,63.67
2018-12-27T21:23:02.552Z,57.57
2018-12-27T21:25:31.944Z,113.93
2018-12-27T21:28:01.338Z,95.80
2018-12-27T21:30:30.806Z,140.63
2018-12-27T21:33:00.179Z,100.93
2018-12-27T21:35:29.554Z,140.93
2018-12-27T21:37:58.970Z,91.83
2018-12-27T21:40:28.355Z,60.17
2018-12-27T21:42:57.748Z,84.57
2018-12-27T21:45:27.196Z,131.87
2018-12-27T21:47:56.673Z,125.97
2018-12-27T21:50:26.068Z,63.50
2018-12-27T21:52:55.468Z,101.60
2018-12-27T21:55:24.849Z,82.80
2018-12-27T21:57:54.298Z,101.43
2018-12-27T22:00:23.682Z,49.50
2018-12-27T22:02:53.075Z,75.77
2018-12-27T22:05:22.423Z,45.50
2018-12-27T22:07:51.817Z,48.20
2018-12-27T22:10:21.217Z,33.67
2018-12-27T22:12:50.597Z,47.50
2018-12-27T22:15:19.982Z,48.97
2018-12-27T22:17:49.413Z,46.43
2018-12-27T22:20:18.806Z,79.00
2018-12-27T22:22:48.226Z,137.67
2018-12-27T22:25:17.602Z,67.97
2018-12-27T22:27:47.098Z,58.37
2018-12-27T22:30:16.554Z,59.67
2018-12-27T22:32:45.935Z,205.93
2018-12-27T22:35:15.346Z,145.53
2018-12-27T22:37:44.737Z,98.33
2018-12-27T22:40:14.158Z,98.03
2018-12-27T22:42:43.547Z,127.77
2018-12-27T22:45:13.005Z,75.07
2018-12-27T22:47:42.480Z,84.60
2018-12-27T22:50:11.873Z,61.27
2018-12-27T22:52:41.252Z,48.70
2018-12-27T22:55:10.642Z,92.33
2018-12-27T22:57:40.055Z,46.27
2018-12-27T23:00:16.901Z,29.13
2018-12-27T23:02:46.285Z,86.07
2018-12-27T23:05:15.681Z,110.07
2018-12-27T23:07:45.065Z,107.07
2018-12-27T23:10:14.515Z,125.97
2018-12-27T23:12:43.879Z,164.00
2018-12-27T23:15:13.265Z,37.73
2018-12-27T23:17:42.678Z,186.53
2018-12-27T23:20:12.066Z,115.23
2018-12-27T23:22:41.468Z,148.17
2018-12-27T23:25:10.872Z,96.80
2018-12-27T23:27:40.272Z,70.10
2018-12-27T23:30:09.716Z,73.27
2018-12-27T23:32:39.181Z,66.87
2018-12-27T23:35:08.615Z,78.60
2018-12-27T23:37:38.005Z,94.37
2018-12-27T23:40:07.582Z,59.70
2018-12-27T23:42:36.960Z,38.13
2018-12-27T23:45:07.410Z,117.57
2018-12-27T23:47:36.796Z,134.30
2018-12-27T23:50:07.473Z,174.03
2018-12-27T23:52:36.871Z,172.63
2018-12-27T23:55:06.365Z,151.80
2018-12-27T23:57:35.756Z,137.37
